Time;durP1;ratioP1;P1;durP2;ratioP2;P2;SDS_P1;SDS_P2;PMS_P1;PMS_P2;Temp;Humidity;BMP_temperature;BMP_pressure;BME280_temperature;BME280_humidity;BME280_pressure;Samples;Min_cycle;Max_cycle;Signal;HPM_P1;HPM_P2
2021/07/27 00:00:58;;;;;;;4.72;2.25;;;21.80;90.30;;;;;;5052925;28;20029;-73
2021/07/27 00:03:26;;;;;;;3.67;1.98;;;21.80;90.30;;;;;;5053065;28;20470;-73
2021/07/27 00:05:52;;;;;;;6.82;2.75;;;21.70;90.40;;;;;;5053513;28;20071;-73
2021/07/27 00:08:18;;;;;;;4.78;3.00;;;21.70;90.60;;;;;;5051993;28;20048;-72
2021/07/27 00:10:44;;;;;;;3.35;2.33;;;21.60;90.70;;;;;;5051837;28;20029;-73
2021/07/27 00:13:10;;;;;;;3.05;2.13;;;21.60;90.80;;;;;;5053008;28;20036;-72
2021/07/27 00:15:35;;;;;;;3.22;1.92;;;21.50;91.10;;;;;;5052621;28;20087;-72
2021/07/27 00:18:01;;;;;;;4.40;1.75;;;21.40;91.30;;;;;;5053332;28;20028;-72
2021/07/27 00:20:26;;;;;;;4.80;1.70;;;21.40;91.50;;;;;;5052509;28;20099;-72
2021/07/27 00:22:52;;;;;;;2.88;1.73;;;21.30;91.40;;;;;;5052636;28;20037;-72
2021/07/27 00:25:18;;;;;;;3.45;1.90;;;21.30;91.50;;;;;;5052909;28;20028;-72
2021/07/27 00:27:44;;;;;;;2.88;1.95;;;21.30;91.50;;;;;;5052573;28;20033;-72
2021/07/27 00:30:11;;;;;;;3.58;2.15;;;21.30;91.50;;;;;;5052844;28;20025;-72
2021/07/27 00:32:41;;;;;;;2.25;1.70;;;21.20;91.90;;;;;;5051969;28;20025;-72
2021/07/27 00:35:09;;;;;;;3.03;1.95;;;21.10;92.00;;;;;;5052567;28;20063;-72
2021/07/27 00:37:35;;;;;;;2.35;1.90;;;21.10;92.00;;;;;;5052462;28;20035;-71
2021/07/27 00:40:03;;;;;;;3.42;2.00;;;21.10;91.90;;;;;;5051457;28;20029;-72
2021/07/27 00:42:31;;;;;;;4.05;2.30;;;21.00;92.00;;;;;;5052412;28;20033;-72
2021/07/27 00:44:57;;;;;;;;;;;21.00;92.00;;;;;;5053272;28;20024;-73
2021/07/27 00:47:22;;;;;;;2.00;1.80;;;21.10;92.00;;;;;;5051318;28;19909;-73
2021/07/27 00:49:48;;;;;;;5.13;2.33;;;21.00;92.20;;;;;;5052303;28;20497;-71
2021/07/27 00:52:14;;;;;;;2.90;2.30;;;21.00;92.40;;;;;;5052211;28;20391;-71
2021/07/27 00:54:40;;;;;;;4.63;1.95;;;21.00;92.30;;;;;;5052278;28;20052;-72
2021/07/27 00:57:06;;;;;;;2.60;2.10;;;20.90;92.60;;;;;;5052054;28;20067;-73
2021/07/27 00:59:32;;;;;;;3.83;2.20;;;20.90;92.50;;;;;;5051366;28;20400;-73
2021/07/27 01:01:57;;;;;;;3.97;2.10;;;20.80;92.80;;;;;;5052071;28;20094;-71
2021/07/27 01:04:23;;;;;;;4.43;2.40;;;20.80;92.60;;;;;;5051840;28;20025;-73
2021/07/27 01:06:49;;;;;;;3.00;1.60;;;20.80;92.90;;;;;;5051979;28;20118;-72
2021/07/27 01:09:15;;;;;;;2.95;2.38;;;20.80;93.00;;;;;;5051777;28;20075;-73
2021/07/27 01:11:42;;;;;;;2.90;2.15;;;20.80;92.90;;;;;;5052124;28;20080;-73
2021/07/27 01:14:08;;;;;;;3.97;2.40;;;20.80;93.10;;;;;;5051709;28;20068;-74
2021/07/27 01:16:36;;;;;;;2.95;2.00;;;20.80;93.10;;;;;;5051874;28;20037;-73
2021/07/27 01:38:38;;;;;;;2.75;2.28;;;21.00;93.10;;;;;;5051108;28;20036;-73
2021/07/27 01:43:39;;;;;;;5.22;3.13;;;21.00;93.00;;;;;;5051174;28;20340;-71
2021/07/27 01:46:04;;;;;;;7.38;2.50;;;21.00;92.90;;;;;;5051192;28;20085;-73
2021/07/27 01:48:31;;;;;;;3.33;2.53;;;21.00;93.00;;;;;;5051230;28;20025;-73
2021/07/27 01:51:00;;;;;;;3.35;2.30;;;21.00;92.70;;;;;;5051338;28;20400;-72
2021/07/27 01:53:35;;;;;;;3.53;2.80;;;21.10;92.80;;;;;;5051040;28;20463;-72
2021/07/27 01:56:01;;;;;;;3.83;2.80;;;21.10;92.90;;;;;;5051186;28;20029;-71
2021/07/27 01:58:27;;;;;;;3.90;2.72;;;21.10;93.00;;;;;;5050048;28;20037;-73
2021/07/27 02:00:53;;;;;;;3.95;2.47;;;21.10;93.00;;;;;;5050068;28;20115;-74
2021/07/27 02:03:18;;;;;;;19.60;2.78;;;21.10;93.00;;;;;;5051256;28;20201;-72
2021/07/27 02:05:45;;;;;;;5.43;2.30;;;21.20;93.10;;;;;;5050282;28;20021;-72
2021/07/27 02:08:11;;;;;;;6.80;2.40;;;21.20;93.40;;;;;;5050987;28;20033;-72
2021/07/27 02:10:38;;;;;;;4.28;2.17;;;21.10;93.70;;;;;;5050957;28;20033;-72
2021/07/27 02:13:13;;;;;;;3.40;2.88;;;21.10;93.30;;;;;;5050981;28;20033;-72
2021/07/27 02:15:39;;;;;;;5.10;2.35;;;21.10;93.50;;;;;;5050828;28;20037;-72
2021/07/27 02:18:05;;;;;;;5.38;2.60;;;21.10;93.30;;;;;;5051106;28;20080;-73
2021/07/27 02:20:31;;;;;;;5.72;2.33;;;21.10;93.30;;;;;;5050656;28;20060;-73
2021/07/27 02:22:57;;;;;;;4.20;2.22;;;21.10;93.40;;;;;;5050652;28;20040;-74
2021/07/27 02:25:23;;;;;;;3.75;2.95;;;21.00;93.20;;;;;;5050763;28;20044;-73
2021/07/27 02:27:48;;;;;;;3.53;2.47;;;21.10;93.40;;;;;;5050731;28;20120;-72
2021/07/27 02:30:15;;;;;;;4.10;2.08;;;21.10;93.40;;;;;;5050677;28;20366;-72
2021/07/27 02:32:43;;;;;;;4.03;2.47;;;21.10;93.50;;;;;;5050891;28;20025;-73
2021/07/27 02:35:09;;;;;;;6.43;2.30;;;21.00;93.50;;;;;;5050670;28;20482;-73
2021/07/27 02:37:36;;;;;;;3.50;2.60;;;21.00;93.60;;;;;;5051387;28;20506;-73
2021/07/27 02:40:05;;;;;;;2.83;2.50;;;21.00;93.70;;;;;;5054817;28;20045;-73
2021/07/27 02:42:31;;;;;;;5.32;2.83;;;20.90;93.70;;;;;;5054599;28;20029;-72
2021/07/27 02:44:57;;;;;;;5.78;2.67;;;21.00;93.50;;;;;;5055005;28;20029;-72
2021/07/27 02:47:24;;;;;;;4.03;2.22;;;20.90;93.70;;;;;;5054651;28;20039;-73
2021/07/27 02:49:51;;;;;;;2.95;2.00;;;20.90;93.70;;;;;;5054645;28;20029;-73
2021/07/27 02:52:17;;;;;;;6.35;2.60;;;20.90;93.80;;;;;;5054499;28;20433;-72
2021/07/27 02:54:42;;;;;;;3.95;2.55;;;20.90;94.30;;;;;;5054529;28;20037;-73
2021/07/27 02:57:08;;;;;;;4.90;2.70;;;20.90;93.90;;;;;;5054330;28;20419;-72
2021/07/27 02:59:34;;;;;;;3.55;2.70;;;20.90;93.80;;;;;;5054764;28;20450;-73
2021/07/27 03:01:59;;;;;;;7.85;2.67;;;20.90;93.90;;;;;;5054325;28;20116;-72
2021/07/27 03:04:25;;;;;;;4.38;2.75;;;20.90;93.80;;;;;;5054177;28;20082;-73
2021/07/27 03:06:53;;;;;;;3.47;2.53;;;20.80;94.00;;;;;;5054304;28;20346;-73
2021/07/27 03:09:30;;;;;;;6.07;2.72;;;20.80;94.00;;;;;;5054142;28;20017;-73
2021/07/27 03:11:56;;;;;;;5.43;2.72;;;20.90;93.90;;;;;;5054638;28;20028;-72
2021/07/27 03:14:23;;;;;;;4.20;2.33;;;20.90;94.10;;;;;;5054271;28;20033;-72
2021/07/27 03:16:49;;;;;;;5.22;2.38;;;20.90;94.30;;;;;;5054164;28;20044;-72
2021/07/27 03:19:18;;;;;;;7.18;2.55;;;20.90;94.30;;;;;;5053848;28;20025;-72
2021/07/27 03:21:44;;;;;;;6.15;2.97;;;20.80;94.40;;;;;;5053660;28;20049;-73
2021/07/27 03:24:09;;;;;;;4.63;2.22;;;20.80;94.40;;;;;;5053832;28;20082;-72
2021/07/27 03:26:35;;;;;;;7.00;2.80;;;20.80;94.50;;;;;;5054381;28;20017;-72
2021/07/27 03:29:00;;;;;;;5.80;2.70;;;20.70;94.50;;;;;;5053883;28;20044;-73
2021/07/27 03:31:30;;;;;;;3.50;2.28;;;20.70;94.80;;;;;;5053714;28;20033;-72
2021/07/27 03:33:55;;;;;;;7.35;2.40;;;20.70;94.70;;;;;;5053921;28;20025;-72
2021/07/27 03:36:21;;;;;;;5.25;2.42;;;20.70;94.90;;;;;;5053729;28;20632;-73
2021/07/27 03:38:46;;;;;;;5.80;2.95;;;20.70;94.90;;;;;;5054104;28;20025;-72
2021/07/27 03:41:12;;;;;;;3.80;2.70;;;20.60;95.00;;;;;;5053664;28;20036;-74
2021/07/27 03:43:39;;;;;;;9.18;3.80;;;20.60;95.00;;;;;;5053383;28;20040;-72
2021/07/27 03:46:05;;;;;;;6.43;2.83;;;20.60;95.10;;;;;;5053454;28;20043;-72
2021/07/27 03:48:31;;;;;;;4.68;2.78;;;20.60;95.10;;;;;;5053329;28;20112;-73
2021/07/27 03:50:56;;;;;;;4.65;2.63;;;20.50;94.90;;;;;;5053033;28;20443;-70
2021/07/27 03:53:25;;;;;;;5.70;3.30;;;20.60;95.00;;;;;;5053345;28;20107;-72
2021/07/27 03:55:52;;;;;;;6.28;3.05;;;20.50;95.20;;;;;;5053349;28;20025;-73
2021/07/27 03:58:18;;;;;;;3.70;2.60;;;20.50;95.10;;;;;;5053546;28;20033;-72
2021/07/27 04:00:44;;;;;;;4.28;2.95;;;20.50;95.10;;;;;;5053169;28;20055;-73
2021/07/27 04:03:14;;;;;;;6.38;3.50;;;20.50;95.10;;;;;;5053099;28;20032;-73
2021/07/27 04:05:42;;;;;;;4.63;3.00;;;20.50;95.20;;;;;;5052634;28;20044;-72
2021/07/27 04:08:08;;;;;;;6.97;3.72;;;20.40;95.30;;;;;;5053311;28;20025;-72
2021/07/27 04:10:33;;;;;;;7.10;3.45;;;20.50;95.40;;;;;;5053134;28;20580;-72
2021/07/27 04:12:59;;;;;;;8.23;3.38;;;20.40;95.40;;;;;;5052955;28;20450;-73
2021/07/27 04:15:24;;;;;;;4.55;3.33;;;20.50;95.40;;;;;;5052950;28;20026;-73
2021/07/27 04:17:50;;;;;;;8.50;3.42;;;20.40;95.50;;;;;;5053330;28;20021;-73
2021/07/27 04:20:16;;;;;;;7.28;4.05;;;20.40;95.40;;;;;;5052837;28;20112;-73
2021/07/27 04:22:41;;;;;;;8.93;4.20;;;20.40;95.60;;;;;;5052284;28;20479;-73
2021/07/27 04:25:07;;;;;;;5.75;3.72;;;20.40;95.60;;;;;;5053039;28;20344;-72
2021/07/27 04:27:33;;;;;;;3.90;3.17;;;20.40;95.40;;;;;;5052926;28;20067;-73
2021/07/27 04:29:58;;;;;;;8.65;4.03;;;20.40;95.90;;;;;;5053139;28;20415;-73
2021/07/27 04:32:24;;;;;;;9.73;4.68;;;20.40;95.70;;;;;;5052554;28;20754;-73
2021/07/27 04:34:52;;;;;;;9.80;3.30;;;20.40;95.70;;;;;;5052644;28;20363;-72
2021/07/27 04:37:21;;;;;;;9.32;3.80;;;20.40;95.80;;;;;;5052484;28;20065;-72
2021/07/27 04:39:56;;;;;;;7.82;3.45;;;20.40;95.60;;;;;;5051249;28;20040;-73
2021/07/27 04:42:21;;;;;;;7.82;3.72;;;20.40;95.60;;;;;;5052367;28;20025;-72
2021/07/27 04:44:47;;;;;;;6.38;4.07;;;20.40;95.60;;;;;;5051981;28;20086;-72
2021/07/27 04:47:12;;;;;;;6.18;3.80;;;20.40;95.70;;;;;;5052475;28;20486;-73
2021/07/27 04:49:38;;;;;;;9.13;4.25;;;20.50;95.60;;;;;;5052241;28;20506;-73
2021/07/27 04:52:04;;;;;;;10.10;3.78;;;20.50;95.70;;;;;;5052078;28;20108;-72
2021/07/27 04:54:31;;;;;;;9.10;4.60;;;20.50;95.70;;;;;;5052144;28;20044;-73
2021/07/27 04:56:57;;;;;;;6.73;4.97;;;20.60;95.60;;;;;;5052701;28;20044;-72
2021/07/27 04:59:22;;;;;;;9.27;4.55;;;20.60;95.70;;;;;;5052350;28;20258;-73
2021/07/27 05:01:48;;;;;;;11.18;4.55;;;20.60;95.60;;;;;;5050843;28;20037;-73
2021/07/27 05:04:13;;;;;;;9.25;4.38;;;20.60;95.70;;;;;;5052141;28;20025;-72
2021/07/27 05:06:39;;;;;;;6.30;4.00;;;20.70;95.60;;;;;;5051923;28;20416;-73
2021/07/27 05:09:04;;;;;;;8.80;4.75;;;20.60;95.80;;;;;;5052535;28;20029;-73
2021/07/27 05:11:30;;;;;;;5.82;3.78;;;20.70;95.80;;;;;;5052242;28;20029;-73
2021/07/27 05:13:56;;;;;;;11.70;4.43;;;20.70;95.70;;;;;;5051795;28;20025;-73
2021/07/27 05:16:22;;;;;;;8.10;4.70;;;20.70;95.80;;;;;;5051762;28;20120;-73
2021/07/27 05:18:48;;;;;;;13.88;4.93;;;20.70;95.80;;;;;;5051938;28;20140;-71
2021/07/27 05:21:18;;;;;;;8.52;4.65;;;20.70;95.60;;;;;;5051435;28;20056;-72
2021/07/27 05:23:43;;;;;;;13.00;5.03;;;20.70;95.60;;;;;;5052331;28;20028;-72
2021/07/27 05:26:09;;;;;;;7.55;5.10;;;20.80;95.50;;;;;;5052140;28;20476;-72
2021/07/27 05:28:34;;;;;;;7.65;4.75;;;20.70;95.50;;;;;;5051567;28;20045;-72
2021/07/27 05:31:04;;;;;;;12.43;6.05;;;20.70;95.50;;;;;;5051775;28;20033;-73
2021/07/27 05:33:29;;;;;;;8.75;5.10;;;20.70;95.50;;;;;;5051546;28;20043;-71
2021/07/27 05:35:55;;;;;;;10.35;5.10;;;20.70;95.60;;;;;;5051629;28;20498;-72
2021/07/27 05:38:20;;;;;;;10.23;5.63;;;20.80;95.50;;;;;;5051437;28;20025;-72
2021/07/27 05:40:55;;;;;;;9.90;5.20;;;20.80;95.50;;;;;;5051216;28;20057;-72
2021/07/27 05:43:20;;;;;;;9.25;5.43;;;20.90;95.40;;;;;;5051061;28;20367;-71
2021/07/27 05:45:46;;;;;;;8.82;5.30;;;20.80;95.40;;;;;;5051203;28;20040;-73
2021/07/27 05:48:12;;;;;;;9.43;5.22;;;20.90;95.50;;;;;;5051389;28;20021;-72
2021/07/27 05:50:37;;;;;;;10.23;5.93;;;20.90;95.40;;;;;;5050494;28;20098;-73
2021/07/27 05:53:03;;;;;;;10.48;5.68;;;20.90;95.50;;;;;;5051211;28;20083;-72
2021/07/27 05:55:28;;;;;;;17.30;6.57;;;21.00;95.50;;;;;;5051263;28;20036;-72
2021/07/27 05:57:54;;;;;;;8.85;5.65;;;21.00;95.50;;;;;;5049907;28;20371;-72
2021/07/27 06:00:20;;;;;;;12.70;7.05;;;21.00;95.40;;;;;;5051044;28;20017;-71
2021/07/27 06:02:45;;;;;;;13.30;6.65;;;21.00;95.40;;;;;;5050989;28;20439;-72
2021/07/27 06:05:11;;;;;;;15.23;7.68;;;21.00;95.40;;;;;;5050978;28;20055;-72
2021/07/27 06:07:37;;;;;;;12.32;7.40;;;21.10;95.50;;;;;;5050852;28;20090;-72
2021/07/27 06:10:03;;;;;;;12.02;7.00;;;21.10;95.50;;;;;;5050829;28;20033;-71
2021/07/27 06:12:28;;;;;;;11.75;8.27;;;21.20;95.50;;;;;;5050557;28;20029;-73
2021/07/27 06:14:54;;;;;;;13.10;7.57;;;21.20;95.40;;;;;;5051185;28;20039;-72
2021/07/27 06:17:20;;;;;;;15.82;8.48;;;21.30;95.40;;;;;;5050443;28;20478;-71
2021/07/27 06:19:45;;;;;;;13.68;8.48;;;21.40;95.30;;;;;;5049373;28;20082;-73
2021/07/27 06:22:11;;;;;;;12.57;8.40;;;21.40;95.20;;;;;;5050529;28;20036;-72
2021/07/27 06:24:38;;;;;;;16.90;9.02;;;21.50;95.20;;;;;;5050492;28;20416;-72
2021/07/27 06:27:04;;;;;;;12.73;7.45;;;21.40;95.10;;;;;;5051044;28;20178;-73
2021/07/27 06:29:30;;;;;;;13.65;8.75;;;21.40;95.00;;;;;;5050781;28;20033;-73
2021/07/27 06:31:55;;;;;;;12.23;9.30;;;21.50;95.10;;;;;;5050612;28;20604;-73
2021/07/27 06:34:21;;;;;;;13.02;8.82;;;21.30;94.80;;;;;;5050668;28;20507;-72
2021/07/27 06:36:46;;;;;;;11.80;8.27;;;21.30;95.00;;;;;;5050501;28;20036;-72
2021/07/27 06:39:12;;;;;;;13.52;8.32;;;21.40;94.80;;;;;;5050545;28;20403;-72
2021/07/27 06:41:38;;;;;;;14.43;8.13;;;21.40;94.90;;;;;;5050928;28;20044;-72
2021/07/27 06:44:03;;;;;;;13.13;8.00;;;21.40;94.90;;;;;;5050395;28;20025;-72
2021/07/27 06:46:29;;;;;;;13.85;9.55;;;21.40;94.80;;;;;;5050287;28;20027;-71
2021/07/27 06:48:55;;;;;;;12.43;8.95;;;21.50;94.70;;;;;;5050218;28;20418;-73
2021/07/27 06:51:21;;;;;;;11.77;8.60;;;21.50;94.60;;;;;;5050115;28;20048;-73
2021/07/27 06:53:48;;;;;;;13.00;8.60;;;21.50;94.70;;;;;;5050591;28;20430;-73
2021/07/27 06:56:14;;;;;;;12.10;9.07;;;21.60;94.70;;;;;;5050586;28;20040;-71
2021/07/27 06:58:41;;;;;;;15.30;9.63;;;21.60;94.30;;;;;;5050285;28;20109;-71
2021/07/27 07:01:09;;;;;;;12.77;9.13;;;21.70;94.20;;;;;;5050223;28;20033;-72
2021/07/27 07:03:36;;;;;;;;;;;21.80;94.00;;;;;;5050673;28;20033;-71
2021/07/27 07:06:03;;;;;;;15.68;8.18;;;21.80;93.80;;;;;;5050672;28;20007;-73
2021/07/27 07:08:28;;;;;;;13.20;8.65;;;21.80;93.80;;;;;;5050542;28;20466;-73
2021/07/27 07:10:58;;;;;;;9.32;7.45;;;21.70;93.80;;;;;;5050135;28;20041;-71
2021/07/27 07:13:25;;;;;;;14.45;8.73;;;21.80;93.80;;;;;;5050040;28;20055;-72
2021/07/27 07:15:51;;;;;;;12.07;7.93;;;21.80;93.80;;;;;;5050229;28;20033;-73
2021/07/27 07:18:17;;;;;;;11.60;7.50;;;21.70;93.90;;;;;;5050031;28;20025;-71
2021/07/27 07:20:42;;;;;;;12.32;6.95;;;21.80;93.90;;;;;;5050177;28;20021;-71
2021/07/27 07:23:08;;;;;;;12.43;7.70;;;21.90;93.80;;;;;;5050088;28;20045;-73
2021/07/27 07:25:39;;;;;;;10.32;7.53;;;22.00;93.70;;;;;;5051081;28;20029;-73
2021/07/27 07:28:05;;;;;;;12.52;7.68;;;22.10;93.40;;;;;;5053443;28;20021;-71
2021/07/27 07:30:30;;;;;;;10.98;7.43;;;22.20;93.50;;;;;;5053052;28;20029;-72
2021/07/27 07:32:56;;;;;;;9.00;6.57;;;22.30;93.20;;;;;;5053650;28;20036;-72
2021/07/27 07:35:24;;;;;;;10.55;7.28;;;22.40;93.30;;;;;;5053448;28;20424;-72
2021/07/27 07:37:49;;;;;;;;;;;22.60;93.00;;;;;;5053935;28;20056;-73
2021/07/27 07:40:15;;;;;;;10.35;7.30;;;22.70;93.00;;;;;;5053594;28;19970;-73
2021/07/27 07:42:41;;;;;;;11.13;7.03;;;22.70;92.80;;;;;;5051882;28;20110;-73
2021/07/27 07:45:07;;;;;;;12.65;8.25;;;22.70;92.70;;;;;;5053031;28;20351;-72
2021/07/27 07:47:32;;;;;;;10.85;7.10;;;22.60;92.70;;;;;;5053976;28;20028;-73
2021/07/27 07:49:59;;;;;;;16.05;8.38;;;22.70;92.80;;;;;;5053641;28;20402;-73
2021/07/27 07:52:25;;;;;;;9.77;7.97;;;22.60;92.80;;;;;;5053411;28;20501;-73
2021/07/27 07:54:50;;;;;;;9.73;7.30;;;22.50;92.40;;;;;;5053588;28;20337;-73
2021/07/27 07:57:16;;;;;;;14.98;8.73;;;22.50;92.70;;;;;;5053323;28;20056;-72
2021/07/27 07:59:43;;;;;;;16.13;9.07;;;22.30;92.70;;;;;;5053453;28;20017;-73
2021/07/27 08:02:09;;;;;;;13.38;8.40;;;22.20;93.00;;;;;;5051453;28;20094;-72
2021/07/27 08:04:35;;;;;;;15.93;8.60;;;22.30;93.00;;;;;;5052999;28;20037;-73
2021/07/27 08:07:01;;;;;;;8.70;7.53;;;22.30;93.00;;;;;;5052900;28;20036;-72
2021/07/27 08:09:26;;;;;;;9.77;7.32;;;22.40;93.00;;;;;;5052184;28;20128;-72
2021/07/27 08:11:52;;;;;;;10.48;7.68;;;22.40;93.00;;;;;;5053181;28;20029;-72
2021/07/27 08:14:19;;;;;;;10.55;7.35;;;22.50;93.10;;;;;;5052752;28;20037;-73
2021/07/27 08:16:44;;;;;;;10.13;7.88;;;22.70;93.00;;;;;;5051613;28;20029;-72
2021/07/27 08:19:10;;;;;;;11.98;7.97;;;22.90;92.40;;;;;;5052818;28;20348;-72
2021/07/27 08:21:35;;;;;;;10.05;7.57;;;23.10;92.40;;;;;;5052514;28;20131;-72
2021/07/27 08:24:01;;;;;;;10.52;7.32;;;23.30;92.00;;;;;;5053506;28;20040;-73
2021/07/27 08:26:27;;;;;;;10.70;7.57;;;23.40;91.90;;;;;;5052674;28;20025;-74
2021/07/27 08:28:53;;;;;;;11.52;7.10;;;23.60;91.70;;;;;;5052607;28;20025;-72
2021/07/27 08:31:18;;;;;;;9.30;7.03;;;23.70;91.50;;;;;;5052536;28;20029;-73
2021/07/27 08:33:44;;;;;;;9.10;6.97;;;23.60;91.20;;;;;;5052434;28;20033;-72
2021/07/27 08:36:09;;;;;;;12.57;7.15;;;23.70;91.30;;;;;;5052182;28;20041;-74
2021/07/27 08:38:36;;;;;;;11.57;7.32;;;23.60;91.10;;;;;;5053114;28;20021;-72
2021/07/27 08:41:04;;;;;;;10.32;7.60;;;23.60;90.90;;;;;;5052445;28;20029;-74
2021/07/27 08:43:30;;;;;;;8.95;6.82;;;23.60;90.60;;;;;;5052012;28;20045;-72
2021/07/27 08:45:56;;;;;;;13.05;7.30;;;23.60;90.50;;;;;;5052191;28;20048;-72
2021/07/27 08:48:22;;;;;;;15.63;7.72;;;23.50;90.50;;;;;;5052072;28;20450;-73
2021/07/27 08:50:48;;;;;;;12.95;8.15;;;23.60;90.60;;;;;;5051573;28;20469;-73
2021/07/27 08:53:14;;;;;;;11.27;8.18;;;23.80;91.10;;;;;;5052284;28;20136;-73
2021/07/27 08:55:39;;;;;;;9.75;7.88;;;24.80;90.60;;;;;;5052081;28;20108;-74
2021/07/27 08:58:05;;;;;;;10.45;7.47;;;25.30;89.10;;;;;;5051976;28;20028;-74
2021/07/27 09:00:32;;;;;;;9.07;7.10;;;26.30;85.60;;;;;;5052132;28;20052;-74
2021/07/27 09:03:16;;;;;;;12.57;8.38;;;27.30;86.30;;;;;;5051279;28;20028;-74
2021/07/27 09:05:42;;;;;;;10.45;7.72;;;27.40;80.90;;;;;;5051199;28;20091;-73
2021/07/27 09:08:10;;;;;;;11.20;8.13;;;27.10;81.20;;;;;;5052094;28;20025;-74
2021/07/27 09:10:39;;;;;;;11.70;7.85;;;26.60;82.00;;;;;;5051862;28;20531;-74
2021/07/27 09:13:07;;;;;;;11.85;8.18;;;26.10;82.60;;;;;;5051794;28;20089;-74
2021/07/27 09:15:41;;;;;;;14.38;7.90;;;25.80;83.50;;;;;;5051768;28;20037;-74
2021/07/27 09:18:10;;;;;;;11.38;8.52;;;25.70;84.30;;;;;;5051010;28;20063;-74
2021/07/27 09:20:41;;;;;;;10.75;7.45;;;25.90;84.70;;;;;;5051941;28;20024;-75
2021/07/27 09:23:15;;;;;;;10.65;7.25;;;26.40;82.70;;;;;;5051657;28;20056;-75
2021/07/27 09:25:48;;;;;;;14.65;8.07;;;26.60;82.20;;;;;;5051559;28;20033;-73
2021/07/27 09:28:14;;;;;;;10.88;7.88;;;26.70;81.60;;;;;;5051547;28;20514;-74
2021/07/27 09:30:42;;;;;;;9.25;7.45;;;26.70;81.00;;;;;;5051585;28;20036;-73
2021/07/27 09:33:09;;;;;;;10.63;7.57;;;26.50;81.10;;;;;;5051524;28;20067;-73
2021/07/27 09:35:36;;;;;;;10.85;7.78;;;26.00;81.00;;;;;;5052039;28;20139;-74
2021/07/27 09:38:11;;;;;;;9.98;7.88;;;25.90;82.00;;;;;;5051438;28;20053;-73
2021/07/27 09:40:55;;;;;;;10.73;7.13;;;25.70;82.20;;;;;;5051436;28;20575;-73
2021/07/27 09:43:23;;;;;;;11.02;7.63;;;25.30;82.70;;;;;;5051316;28;20040;-74
2021/07/27 09:45:55;;;;;;;12.63;7.18;;;25.10;83.20;;;;;;5049972;28;20177;-73
2021/07/27 09:48:22;;;;;;;10.93;7.68;;;24.90;83.60;;;;;;5050289;28;20083;-72
2021/07/27 09:50:49;;;;;;;15.10;7.18;;;24.90;83.90;;;;;;5051614;28;20039;-71
2021/07/27 09:53:16;;;;;;;10.25;6.55;;;24.80;83.90;;;;;;5051309;28;20451;-73
2021/07/27 09:55:42;;;;;;;10.95;7.45;;;24.80;84.10;;;;;;5049805;28;20033;-73
2021/07/27 09:58:08;;;;;;;12.07;6.90;;;24.60;84.50;;;;;;5050971;28;20079;-73
2021/07/27 10:00:58;;;;;;;13.55;7.70;;;24.30;85.40;;;;;;5051017;28;20067;-73
2021/07/27 10:03:50;;;;;;;13.95;7.70;;;24.40;85.20;;;;;;5040735;28;20379;-72
2021/07/27 10:06:25;;;;;;;14.95;7.93;;;24.20;84.70;;;;;;5051085;28;20056;-72
2021/07/27 10:09:01;;;;;;;14.40;7.63;;;24.30;85.10;;;;;;5051339;28;20049;-74
2021/07/27 10:11:42;;;;;;;12.30;7.78;;;24.30;85.00;;;;;;5050566;28;20630;-73
2021/07/27 10:14:10;;;;;;;15.02;7.43;;;24.40;84.60;;;;;;5050709;28;20070;-73
2021/07/27 10:16:36;;;;;;;9.52;6.82;;;24.60;85.10;;;;;;5050936;28;20029;-73
2021/07/27 10:19:22;;;;;;;12.02;6.72;;;24.80;84.20;;;;;;5050670;28;20688;-73
2021/07/27 10:22:05;;;;;;;11.02;6.57;;;25.00;83.90;;;;;;5050457;28;20128;-74
2021/07/27 10:24:42;;;;;;;11.40;7.20;;;25.10;82.10;;;;;;5050548;28;20082;-73
2021/07/27 10:27:16;;;;;;;10.35;6.70;;;25.30;82.10;;;;;;5050869;28;20045;-73
2021/07/27 10:29:43;;;;;;;13.05;7.82;;;25.50;81.70;;;;;;5049709;28;20443;-73
2021/07/27 10:32:19;;;;;;;11.73;7.60;;;25.60;81.30;;;;;;5050400;28;20033;-73
2021/07/27 10:34:47;;;;;;;12.32;7.47;;;25.70;81.00;;;;;;5050463;28;20033;-72
2021/07/27 10:37:15;;;;;;;12.68;7.30;;;25.70;80.50;;;;;;5050467;28;20044;-74
2021/07/27 10:39:49;;;;;;;11.15;7.80;;;25.60;80.60;;;;;;5050727;28;20041;-72
2021/07/27 10:42:16;;;;;;;11.50;7.28;;;25.60;80.40;;;;;;5050230;28;20049;-73
2021/07/27 10:44:42;;;;;;;13.45;7.63;;;25.40;80.80;;;;;;5049766;28;20017;-72
2021/07/27 10:47:08;;;;;;;13.65;8.55;;;25.40;80.90;;;;;;5050139;28;20043;-72
2021/07/27 10:49:34;;;;;;;17.42;8.57;;;25.30;80.60;;;;;;5050096;28;20048;-73
2021/07/27 10:52:01;;;;;;;13.77;8.75;;;25.30;80.40;;;;;;5050299;28;20038;-73
2021/07/27 10:54:29;;;;;;;15.38;8.32;;;25.20;80.10;;;;;;5050281;28;20029;-74
2021/07/27 10:57:06;;;;;;;14.60;8.48;;;25.30;80.20;;;;;;5050468;28;20021;-72
2021/07/27 10:59:36;;;;;;;11.02;7.07;;;25.50;80.00;;;;;;5052710;28;20045;-73
2021/07/27 11:02:10;;;;;;;11.27;7.70;;;25.60;80.20;;;;;;5053951;28;20036;-75
2021/07/27 11:04:36;;;;;;;13.25;7.93;;;25.70;80.60;;;;;;5054115;28;20025;-73
2021/07/27 11:07:18;;;;;;;12.80;7.55;;;25.90;80.60;;;;;;5053009;28;20040;-73
2021/07/27 11:09:57;;;;;;;12.48;7.88;;;25.90;80.00;;;;;;5053908;28;20033;-74
2021/07/27 11:12:29;;;;;;;10.43;7.20;;;26.00;79.90;;;;;;5053315;28;20025;-72
2021/07/27 11:15:13;;;;;;;11.38;7.57;;;26.10;79.30;;;;;;5054435;28;20470;-73
2021/07/27 11:17:43;;;;;;;11.15;7.35;;;26.20;78.80;;;;;;5053975;28;20060;-73
2021/07/27 11:20:11;;;;;;;11.18;8.13;;;26.40;78.30;;;;;;5052806;28;20044;-72
2021/07/27 11:22:44;;;;;;;11.23;7.63;;;26.50;78.20;;;;;;5053761;28;20069;-73
2021/07/27 11:25:11;;;;;;;12.68;8.20;;;26.60;77.90;;;;;;5053979;28;20107;-73
2021/07/27 11:27:36;;;;;;;12.07;7.65;;;26.70;77.80;;;;;;5052783;28;20037;-74
2021/07/27 11:30:05;;;;;;;13.05;8.23;;;26.60;77.10;;;;;;5054077;28;20073;-74
2021/07/27 11:32:37;;;;;;;16.40;8.48;;;26.40;77.00;;;;;;5053602;28;20033;-73
2021/07/27 11:35:05;;;;;;;11.63;7.35;;;26.10;76.70;;;;;;5053777;28;20539;-74
2021/07/27 11:37:30;;;;;;;14.07;8.27;;;26.20;76.90;;;;;;5052961;28;20094;-73
2021/07/27 11:39:56;;;;;;;12.45;7.43;;;26.20;76.40;;;;;;5053798;28;20029;-76
2021/07/27 11:42:29;;;;;;;9.60;7.35;;;26.20;76.90;;;;;;5053556;28;20110;-74
2021/07/27 11:44:57;;;;;;;12.07;8.15;;;26.10;76.00;;;;;;5053742;28;20013;-73
2021/07/27 11:47:23;;;;;;;;;;;26.10;76.40;;;;;;5053928;28;20025;-74
2021/07/27 11:49:59;;;;;;;10.90;8.15;;;26.20;76.70;;;;;;5052337;28;19913;-74
2021/07/27 11:52:29;;;;;;;13.20;8.82;;;26.20;76.50;;;;;;5053594;28;20036;-74
2021/07/27 11:55:02;;;;;;;13.98;8.35;;;26.30;77.00;;;;;;5053477;28;20040;-74
2021/07/27 11:57:28;;;;;;;13.05;9.15;;;26.30;76.00;;;;;;5053378;28;20033;-74
2021/07/27 12:00:05;;;;;;;10.90;8.50;;;26.30;75.80;;;;;;5052652;28;20033;-74
2021/07/27 12:02:31;;;;;;;12.57;8.05;;;26.30;75.80;;;;;;5052316;28;20041;-74
2021/07/27 12:04:57;;;;;;;12.18;8.90;;;26.30;76.10;;;;;;5053170;28;20071;-73
2021/07/27 12:07:23;;;;;;;12.23;8.82;;;26.10;76.20;;;;;;5053063;28;20025;-74
2021/07/27 12:09:49;;;;;;;14.98;9.73;;;26.20;76.50;;;;;;5052959;28;20086;-73
2021/07/27 12:12:14;;;;;;;13.45;9.07;;;26.10;76.70;;;;;;5052350;28;20033;-72
2021/07/27 12:14:40;;;;;;;17.83;8.23;;;26.10;75.80;;;;;;5053340;28;20029;-72
2021/07/27 12:17:06;;;;;;;12.82;8.07;;;26.00;75.50;;;;;;5052829;28;20037;-73
2021/07/27 12:19:31;;;;;;;12.00;7.78;;;26.10;75.70;;;;;;5052746;28;20467;-73
2021/07/27 12:21:58;;;;;;;14.18;8.27;;;26.00;75.70;;;;;;5052701;28;20502;-73
2021/07/27 12:24:24;;;;;;;11.70;8.02;;;26.00;76.30;;;;;;5052818;28;20083;-73
2021/07/27 12:26:49;;;;;;;12.15;7.70;;;26.10;76.40;;;;;;5053329;28;20025;-73
2021/07/27 12:29:15;;;;;;;11.18;7.72;;;26.20;75.80;;;;;;5053024;28;20041;-73
2021/07/27 12:31:41;;;;;;;10.52;6.78;;;26.20;75.70;;;;;;5052573;28;20037;-73
2021/07/27 12:34:06;;;;;;;9.95;6.95;;;26.10;75.90;;;;;;5052428;28;20033;-72
2021/07/27 12:36:34;;;;;;;11.43;7.63;;;26.00;76.10;;;;;;5052610;28;20116;-72
2021/07/27 12:38:59;;;;;;;;;;;26.00;75.70;;;;;;5053335;28;20220;-72
2021/07/27 12:41:25;;;;;;;9.75;7.40;;;26.00;75.10;;;;;;5052396;28;19992;-73
2021/07/27 12:43:51;;;;;;;10.65;7.53;;;26.10;75.30;;;;;;5052484;28;20512;-74
2021/07/27 12:46:17;;;;;;;12.63;7.10;;;26.20;75.40;;;;;;5052340;28;20030;-75
2021/07/27 12:48:43;;;;;;;8.77;6.68;;;26.30;75.60;;;;;;5052346;28;20546;-73
2021/07/27 12:51:16;;;;;;;10.23;7.38;;;26.60;75.90;;;;;;5052108;28;20113;-72
2021/07/27 12:53:42;;;;;;;12.05;6.93;;;26.80;74.90;;;;;;5052927;28;20005;-73
2021/07/27 12:56:08;;;;;;;13.60;7.43;;;26.90;75.00;;;;;;5052165;28;20043;-73
2021/07/27 12:58:33;;;;;;;10.23;6.90;;;26.90;73.40;;;;;;5052148;28;20116;-74
2021/07/27 13:00:59;;;;;;;11.48;7.10;;;26.70;72.70;;;;;;5051990;28;20033;-74
2021/07/27 13:03:24;;;;;;;11.60;6.47;;;26.80;73.90;;;;;;5051920;28;20099;-74
2021/07/27 13:05:52;;;;;;;9.48;6.68;;;26.80;73.20;;;;;;5051696;28;20441;-73